Time;durP1;ratioP1;P1;durP2;ratioP2;P2;SDS_P1;SDS_P2;PMS_P1;PMS_P2;Temp;Humidity;BMP_temperature;BMP_pressure;BME280_temperature;BME280_humidity;BME280_pressure;Samples;Min_cycle;Max_cycle;Signal;HPM_P1;HPM_P2
2022/07/17 00:01:26;;;;;;;8.55;5.60;;;;;;;27.26;43.12;99758.19;5072452;28;20021;-36
2022/07/17 00:03:52;;;;;;;10.20;5.70;;;;;;;27.41;43.02;99756.13;5072500;28;20039;-38
2022/07/17 00:06:17;;;;;;;8.88;5.88;;;;;;;27.51;42.66;99761.28;5072559;28;20459;-37
2022/07/17 00:08:43;;;;;;;9.07;5.63;;;;;;;27.52;42.97;99770.31;5072235;28;20040;-37
2022/07/17 00:11:08;;;;;;;7.78;5.32;;;;;;;27.57;42.56;99761.97;5070768;28;20073;-37
2022/07/17 00:13:34;;;;;;;10.02;5.43;;;;;;;27.54;42.26;99763.41;5071692;28;20441;-37
2022/07/17 00:15:59;;;;;;;8.93;5.30;;;;;;;27.45;42.17;99766.09;5072048;28;20024;-37
2022/07/17 00:18:25;;;;;;;8.75;5.20;;;;;;;27.37;42.77;99768.81;5071707;28;20035;-35
2022/07/17 00:20:50;;;;;;;6.28;5.00;;;;;;;27.41;42.40;99769.78;5072061;28;20468;-37
2022/07/17 00:23:16;;;;;;;7.63;5.32;;;;;;;27.30;42.30;99770.06;5071857;28;20028;-37
2022/07/17 00:25:41;;;;;;;6.57;4.80;;;;;;;27.15;42.46;99756.81;5071953;28;20035;-37
2022/07/17 00:28:07;;;;;;;6.30;4.50;;;;;;;27.29;41.65;99764.94;5071791;28;20027;-37
2022/07/17 00:30:32;;;;;;;4.97;4.40;;;;;;;27.24;42.03;99763.09;5071713;28;20027;-37
2022/07/17 00:32:57;;;;;;;7.80;4.55;;;;;;;27.27;41.90;99767.97;5071885;28;20020;-37
2022/07/17 00:35:24;;;;;;;5.90;4.22;;;;;;;27.15;41.17;99772.38;5072059;28;20157;-37
2022/07/17 00:37:49;;;;;;;7.13;4.13;;;;;;;27.11;41.06;99769.44;5071967;28;20134;-37
2022/07/17 00:40:21;;;;;;;5.35;4.40;;;;;;;27.25;41.12;99772.94;5071435;28;20071;-36
2022/07/17 00:42:47;;;;;;;4.55;4.15;;;;;;;27.42;40.62;99772.22;5071598;28;20028;-37
2022/07/17 00:45:13;;;;;;;4.43;3.83;;;;;;;27.41;40.45;99780.72;5071702;28;20024;-37
2022/07/17 00:48:10;;;;;;;5.72;3.85;;;;;;;27.39;40.30;99772.81;5070907;28;20016;-37
2022/07/17 00:50:38;;;;;;;4.53;4.13;;;;;;;27.31;41.14;99784.53;5058623;28;20055;-36
2022/07/17 00:53:05;;;;;;;5.15;3.97;;;;;;;27.23;40.98;99777.09;5071708;28;20050;-36
2022/07/17 00:55:31;;;;;;;6.28;3.97;;;;;;;27.17;40.72;99775.59;5071382;28;20403;-37
2022/07/17 00:58:00;;;;;;;4.65;4.07;;;;;;;27.17;40.55;99781.88;5071446;28;20059;-37
2022/07/17 01:00:26;;;;;;;4.65;4.10;;;;;;;27.17;41.22;99779.16;5071264;28;20111;-36
2022/07/17 01:02:53;;;;;;;5.47;4.03;;;;;;;27.23;40.57;99777.88;5071134;28;20402;-37
2022/07/17 01:05:20;;;;;;;4.97;3.67;;;;;;;27.27;40.88;99778.09;5071391;28;20107;-36
2022/07/17 01:07:47;;;;;;;5.90;4.25;;;;;;;27.28;40.58;99774.22;5071243;28;20020;-36
2022/07/17 01:10:13;;;;;;;4.97;3.90;;;;;;;27.19;41.07;99785.09;5071012;28;20028;-37
2022/07/17 01:12:40;;;;;;;5.00;3.90;;;;;;;27.24;41.05;99778.69;5071072;28;20043;-36
2022/07/17 01:15:08;;;;;;;4.38;3.97;;;;;;;27.24;40.97;99776.75;5071251;28;20636;-36
2022/07/17 01:17:34;;;;;;;7.90;4.30;;;;;;;27.16;41.75;99779.44;5071001;28;20024;-36
2022/07/17 01:20:02;;;;;;;7.53;4.22;;;;;;;27.01;41.70;99784.19;5071140;28;20092;-36
2022/07/17 01:22:28;;;;;;;7.25;4.20;;;;;;;26.71;42.49;99783.84;5070633;28;20043;-36
2022/07/17 01:24:53;;;;;;;5.35;4.20;;;;;;;26.67;42.90;99792.94;5070974;28;20564;-36
2022/07/17 01:27:19;;;;;;;5.82;4.63;;;;;;;26.68;43.01;99802.75;5070977;28;20029;-36
2022/07/17 01:29:44;;;;;;;6.25;4.50;;;;;;;26.80;42.90;99802.19;5070918;28;20656;-35
2022/07/17 01:32:10;;;;;;;6.47;4.60;;;;;;;26.70;42.87;99795.06;5070828;28;20031;-37
2022/07/17 01:34:36;;;;;;;5.60;4.22;;;;;;;26.72;42.87;99801.81;5070475;28;20619;-37
2022/07/17 01:37:02;;;;;;;5.55;4.78;;;;;;;26.73;43.57;99802.63;5070676;28;20066;-37
2022/07/17 01:42:11;;;;;;;5.20;4.50;;;;;;;26.96;42.55;99811.63;5071698;28;20036;-37
2022/07/17 01:44:36;;;;;;;6.55;5.00;;;;;;;26.89;42.77;99805.78;5071327;28;20032;-37
2022/07/17 01:47:03;;;;;;;6.25;4.90;;;;;;;27.05;42.51;99815.19;5071614;28;20474;-37
2022/07/17 01:49:29;;;;;;;8.23;4.93;;;;;;;26.99;42.84;99812.91;5071556;28;20491;-37
2022/07/17 01:51:59;;;;;;;8.90;5.28;;;;;;;26.91;42.83;99820.75;5071617;28;20133;-37
2022/07/17 01:54:25;;;;;;;6.72;5.25;;;;;;;26.78;43.51;99807.16;5071172;28;20028;-37
2022/07/17 01:56:51;;;;;;;5.63;5.03;;;;;;;26.64;43.65;99797.09;5071181;28;20051;-37
2022/07/17 01:59:16;;;;;;;8.48;5.07;;;;;;;26.84;43.56;99809.44;5081019;28;20047;-37
2022/07/17 02:01:41;;;;;;;6.32;5.13;;;;;;;26.85;43.60;99813.78;5091477;28;20397;-37
2022/07/17 02:04:07;;;;;;;10.82;5.47;;;;;;;26.74;43.69;99808.91;5091350;28;20433;-36
2022/07/17 02:06:32;;;;;;;6.85;5.45;;;;;;;26.58;44.05;99811.97;5090946;28;20120;-36
2022/07/17 02:08:58;;;;;;;6.90;5.45;;;;;;;26.71;44.14;99816.59;5091276;28;20024;-36
2022/07/17 02:11:23;;;;;;;6.13;5.05;;;;;;;26.60;44.48;99817.13;5091505;28;20377;-36
2022/07/17 02:13:48;;;;;;;8.48;5.25;;;;;;;26.40;44.90;99813.72;5089680;28;20039;-36
2022/07/17 02:16:14;;;;;;;5.85;5.25;;;;;;;26.55;44.69;99819.97;5090801;28;20106;-36
2022/07/17 02:18:39;;;;;;;8.25;5.20;;;;;;;26.53;44.63;99823.00;5091246;28;20020;-37
2022/07/17 02:21:05;;;;;;;6.88;5.60;;;;;;;26.49;44.71;99811.88;5091205;28;20503;-37
2022/07/17 02:23:30;;;;;;;6.32;5.55;;;;;;;26.55;44.83;99814.50;5090878;28;20142;-37
2022/07/17 02:25:56;;;;;;;6.13;5.45;;;;;;;26.55;44.47;99815.31;5090778;28;20452;-37
2022/07/17 02:28:21;;;;;;;11.07;5.78;;;;;;;26.46;44.68;99817.16;5090415;28;20035;-37
2022/07/17 02:30:47;;;;;;;7.57;5.50;;;;;;;26.58;44.56;99805.69;5091000;28;20020;-37
2022/07/17 02:33:13;;;;;;;8.38;5.50;;;;;;;26.53;44.70;99812.06;5090615;28;20028;-37
2022/07/17 02:35:39;;;;;;;7.72;5.18;;;;;;;26.34;45.11;99812.22;5090714;28;20439;-37
2022/07/17 02:38:04;;;;;;;8.68;5.88;;;;;;;26.17;45.88;99817.53;5090851;28;20397;-37
2022/07/17 02:40:29;;;;;;;9.27;5.47;;;;;;;26.16;45.95;99829.53;5091235;28;20032;-37
2022/07/17 02:42:55;;;;;;;8.30;5.60;;;;;;;26.18;45.72;99825.41;5090803;28;20111;-37
2022/07/17 02:45:24;;;;;;;9.07;5.38;;;;;;;26.04;46.15;99827.34;5090991;28;20024;-37
2022/07/17 02:47:50;;;;;;;;;;;;;;;26.02;46.38;99830.34;5090773;28;20027;-37
2022/07/17 02:50:15;;;;;;;6.68;5.38;;;;;;;26.03;46.50;99823.00;5090513;28;19977;-37
2022/07/17 02:52:41;;;;;;;10.25;5.50;;;;;;;26.18;45.94;99822.69;5090909;28;20028;-37
2022/07/17 02:55:07;;;;;;;7.25;5.45;;;;;;;26.06;46.22;99822.38;5090470;28;20096;-37
2022/07/17 02:57:33;;;;;;;6.05;5.30;;;;;;;26.12;45.88;99821.97;5090671;28;20089;-37
2022/07/17 02:59:58;;;;;;;7.93;5.28;;;;;;;26.02;46.35;99827.63;5090424;28;20119;-37
2022/07/17 03:02:24;;;;;;;7.30;5.28;;;;;;;26.16;46.11;99826.81;5090644;28;20111;-37
2022/07/17 03:04:49;;;;;;;6.53;5.32;;;;;;;26.14;46.27;99829.84;5090916;28;20059;-37
2022/07/17 03:07:15;;;;;;;6.70;5.35;;;;;;;26.56;44.87;99819.66;5090652;28;20028;-37
2022/07/17 03:09:41;;;;;;;8.18;5.18;;;;;;;26.07;46.53;99843.09;5090385;28;20028;-37
2022/07/17 03:12:06;;;;;;;7.85;5.53;;;;;;;25.81;46.78;99838.09;5092355;28;20538;-37
2022/07/17 03:14:32;;;;;;;7.63;5.30;;;;;;;25.75;47.32;99842.06;5094812;28;20040;-37
2022/07/17 03:16:57;;;;;;;7.25;5.47;;;;;;;25.84;47.05;99832.06;5094648;28;20038;-37
2022/07/17 03:19:23;;;;;;;7.68;5.30;;;;;;;25.79;47.16;99837.59;5094552;28;20032;-37
2022/07/17 03:21:48;;;;;;;7.93;5.53;;;;;;;25.88;46.99;99848.63;5094694;28;20040;-34
2022/07/17 03:24:14;;;;;;;7.10;5.40;;;;;;;25.96;46.60;99839.75;5094472;28;20027;-36
2022/07/17 03:26:39;;;;;;;7.47;4.85;;;;;;;25.95;46.17;99849.06;5094713;28;20045;-35
2022/07/17 03:29:04;;;;;;;7.95;5.35;;;;;;;25.83;46.18;99849.50;5094658;28;20024;-37
2022/07/17 03:31:30;;;;;;;8.68;7.05;;;;;;;26.04;45.78;99852.66;5094196;28;20028;-37
2022/07/17 03:33:55;;;;;;;8.13;5.55;;;;;;;25.98;45.91;99858.53;5094312;28;20399;-35
2022/07/17 03:36:21;;;;;;;7.18;5.72;;;;;;;25.89;45.87;99850.22;5094158;28;20050;-35
2022/07/17 03:38:46;;;;;;;6.43;4.75;;;;;;;25.96;45.97;99863.50;5094190;28;20032;-36
2022/07/17 03:41:11;;;;;;;6.95;4.88;;;;;;;25.79;46.35;99853.97;5092818;28;20024;-36
2022/07/17 03:43:37;;;;;;;8.02;4.80;;;;;;;26.04;45.59;99858.13;5093492;28;20112;-35
2022/07/17 03:46:02;;;;;;;5.70;4.68;;;;;;;26.21;45.38;99860.22;5093821;28;20099;-36
2022/07/17 03:48:28;;;;;;;7.53;4.43;;;;;;;26.21;45.37;99862.16;5093988;28;20031;-35
2022/07/17 03:50:54;;;;;;;5.15;4.40;;;;;;;26.43;44.65;99864.94;5093681;28;20075;-37
2022/07/17 03:53:19;;;;;;;6.53;4.28;;;;;;;26.80;43.99;99868.50;5093391;28;20549;-38
2022/07/17 03:55:45;;;;;;;6.35;4.50;;;;;;;27.05;43.40;99871.75;5093606;28;20026;-37
2022/07/17 03:58:10;;;;;;;7.95;5.80;;;;;;;27.31;42.74;99866.50;5093195;28;20042;-36
2022/07/17 04:00:35;;;;;;;6.35;4.25;;;;;;;27.40;42.33;99870.06;5093675;28;20448;-36
2022/07/17 04:03:01;;;;;;;4.97;4.30;;;;;;;27.70;41.81;99870.38;5093089;28;20030;-35
2022/07/17 04:05:26;;;;;;;6.38;4.22;;;;;;;27.62;41.36;99871.94;5093667;28;20028;-36
2022/07/17 04:07:52;;;;;;;4.70;3.47;;;;;;;27.74;40.65;99878.75;5093945;28;20460;-36
2022/07/17 04:10:17;;;;;;;6.40;3.78;;;;;;;27.89;40.60;99883.81;5093445;28;20487;-36
2022/07/17 04:12:43;;;;;;;5.82;3.92;;;;;;;28.22;40.04;99886.19;5093246;28;20034;-37
2022/07/17 04:15:09;;;;;;;5.22;3.92;;;;;;;28.16;40.04;99895.66;5074505;28;20021;-37
2022/07/17 04:17:35;;;;;;;6.22;4.05;;;;;;;28.65;39.07;99896.41;5073170;28;20032;-37
2022/07/17 04:20:01;;;;;;;5.50;4.45;;;;;;;28.83;38.26;99898.06;5072933;28;20483;-37
2022/07/17 04:22:26;;;;;;;9.32;8.15;;;;;;;29.18;37.46;99908.22;5071880;28;20039;-36
2022/07/17 04:24:52;;;;;;;9.88;8.80;;;;;;;29.38;37.43;99909.47;5072675;28;20032;-37
2022/07/17 04:27:18;;;;;;;7.75;4.78;;;;;;;29.65;36.85;99907.47;5072934;28;20048;-37
2022/07/17 04:29:43;;;;;;;6.07;4.30;;;;;;;29.79;36.52;99906.13;5073427;28;20024;-37
2022/07/17 04:32:09;;;;;;;6.20;3.85;;;;;;;29.62;36.61;99907.00;5073138;28;20103;-37
2022/07/17 04:34:35;;;;;;;5.13;3.50;;;;;;;29.97;35.57;99895.13;5072520;28;20380;-37
2022/07/17 04:37:02;;;;;;;3.80;3.40;;;;;;;30.29;35.20;99909.28;5072954;28;20108;-36
2022/07/17 04:39:28;;;;;;;3.50;3.20;;;;;;;30.53;34.95;99914.97;5072599;28;20104;-36
2022/07/17 04:41:54;;;;;;;5.13;3.85;;;;;;;30.80;34.38;99915.59;5073109;28;20431;-36
2022/07/17 04:44:19;;;;;;;5.18;3.53;;;;;;;30.97;33.55;99917.44;5072327;28;20025;-36
2022/07/17 04:46:45;;;;;;;4.40;3.40;;;;;;;31.07;33.30;99924.44;5072466;28;20040;-36
2022/07/17 04:49:10;;;;;;;5.45;3.35;;;;;;;31.35;32.68;99924.69;5072555;28;20473;-36
2022/07/17 04:51:36;;;;;;;5.30;3.10;;;;;;;31.34;32.47;99928.59;5072372;28;20059;-36
2022/07/17 04:54:01;;;;;;;4.57;3.00;;;;;;;31.28;32.57;99928.00;5072443;28;20024;-36
2022/07/17 04:56:27;;;;;;;8.40;5.68;;;;;;;31.90;32.09;99923.44;5071922;28;20377;-36
2022/07/17 04:58:52;;;;;;;6.53;4.70;;;;;;;31.52;32.48;99934.72;5079782;28;20024;-37
2022/07/17 05:01:18;;;;;;;6.78;3.15;;;;;;;31.65;31.99;99927.31;5092338;28;20020;-37
2022/07/17 05:03:43;;;;;;;4.90;2.90;;;;;;;30.94;32.90;99926.34;5092082;28;20087;-37
2022/07/17 05:06:09;;;;;;;4.78;3.00;;;;;;;31.66;32.06;99921.47;5091689;28;20024;-36
2022/07/17 05:08:35;;;;;;;4.18;2.90;;;;;;;32.00;31.07;99922.16;5092044;28;20020;-37
2022/07/17 05:11:00;;;;;;;3.63;2.72;;;;;;;32.85;30.17;99927.97;5091895;28;20148;-37
2022/07/17 05:13:26;;;;;;;4.75;2.70;;;;;;;32.42;30.23;99934.91;5091225;28;20023;-37
2022/07/17 05:15:51;;;;;;;5.10;2.90;;;;;;;32.38;30.08;99934.00;5091145;28;20466;-37
2022/07/17 05:18:16;;;;;;;4.70;2.80;;;;;;;32.07;30.65;99938.16;5091488;28;20035;-37
2022/07/17 05:20:42;;;;;;;5.10;3.00;;;;;;;32.46;29.77;99938.59;5091900;28;20423;-37
2022/07/17 05:23:07;;;;;;;13.00;9.77;;;;;;;32.78;29.82;99947.84;5091360;28;20020;-37
2022/07/17 05:25:33;;;;;;;3.88;2.90;;;;;;;32.73;29.84;99943.38;5091373;28;20467;-37
2022/07/17 05:27:58;;;;;;;5.93;2.63;;;;;;;32.98;29.16;99940.56;5091119;28;20202;-37
2022/07/17 05:30:24;;;;;;;4.97;3.00;;;;;;;33.16;28.68;99940.28;5091396;28;20016;-37
2022/07/17 05:32:49;;;;;;;5.20;3.00;;;;;;;33.14;28.76;99937.88;5091190;28;20020;-37
2022/07/17 05:35:15;;;;;;;3.97;3.10;;;;;;;33.18;29.07;99946.25;5089851;28;20020;-37
2022/07/17 05:37:41;;;;;;;3.10;2.80;;;;;;;33.84;28.34;99962.25;5089535;28;20039;-35
2022/07/17 05:40:07;;;;;;;3.13;2.83;;;;;;;33.96;28.04;99960.56;5089829;28;20085;-36
2022/07/17 05:42:32;;;;;;;4.85;2.58;;;;;;;33.83;27.93;99962.59;5090186;28;20016;-37
2022/07/17 05:44:58;;;;;;;5.15;2.70;;;;;;;33.68;28.26;99964.16;5089256;28;20031;-36
2022/07/17 05:47:24;;;;;;;5.03;2.80;;;;;;;33.46;27.89;99957.28;5089811;28;20027;-42
2022/07/17 05:49:50;;;;;;;4.95;2.47;;;;;;;32.39;29.42;99963.16;5090085;28;20419;-41
2022/07/17 05:52:16;;;;;;;4.97;2.80;;;;;;;33.45;28.51;99967.50;5090475;28;20024;-43
2022/07/17 05:54:42;;;;;;;5.15;2.70;;;;;;;34.22;28.04;99969.13;5090540;28;20027;-43
2022/07/17 05:57:07;;;;;;;6.43;2.83;;;;;;;34.03;27.76;99977.28;5089594;28;20020;-41
2022/07/17 05:59:32;;;;;;;7.07;2.78;;;;;;;33.39;28.31;99979.94;5075915;28;20028;-43
2022/07/17 06:01:58;;;;;;;6.55;2.92;;;;;;;33.98;27.71;99980.31;5067897;28;20431;-44
2022/07/17 06:04:23;;;;;;;4.75;2.75;;;;;;;34.79;26.56;99982.66;5067565;28;20086;-43
2022/07/17 06:06:49;;;;;;;6.90;2.83;;;;;;;34.67;26.93;99986.34;5067920;28;20021;-42
2022/07/17 06:09:14;;;;;;;4.45;2.70;;;;;;;34.81;26.47;99983.09;5067424;28;20036;-43
2022/07/17 06:11:39;;;;;;;4.25;2.70;;;;;;;35.18;26.31;99979.94;5068643;28;20085;-43
2022/07/17 06:14:05;;;;;;;14.18;11.05;;;;;;;35.61;25.53;99983.53;5069161;28;20488;-41
2022/07/17 06:16:30;;;;;;;4.85;2.92;;;;;;;35.54;25.71;99981.44;5069418;28;20516;-43
2022/07/17 06:18:56;;;;;;;3.55;2.47;;;;;;;35.82;25.36;99980.38;5069251;28;20024;-40
2022/07/17 06:21:21;;;;;;;7.95;2.90;;;;;;;35.57;25.80;99980.72;5069475;28;20345;-43
2022/07/17 06:23:47;;;;;;;4.18;2.70;;;;;;;35.70;25.39;99975.84;5089566;28;20019;-43
2022/07/17 06:26:12;;;;;;;4.07;2.50;;;;;;;35.80;25.22;99969.69;5089369;28;20028;-42
2022/07/17 06:28:37;;;;;;;5.35;2.60;;;;;;;36.36;25.00;99959.13;5089773;28;20038;-42
2022/07/17 06:31:03;;;;;;;3.40;2.63;;;;;;;35.48;24.57;99962.75;5088155;28;20215;-43
2022/07/17 06:33:28;;;;;;;3.78;2.50;;;;;;;35.98;24.30;99966.41;5089167;28;20371;-41
2022/07/17 06:35:54;;;;;;;4.47;2.40;;;;;;;36.12;23.27;99965.84;5090232;28;20028;-43
2022/07/17 06:38:20;;;;;;;4.22;2.42;;;;;;;36.68;22.95;99961.59;5089875;28;20085;-42
2022/07/17 06:40:46;;;;;;;7.95;2.40;;;;;;;36.31;23.21;99953.88;5070388;28;20024;-44
2022/07/17 06:43:11;;;;;;;6.18;2.33;;;;;;;35.91;23.48;99969.06;5069478;28;20028;-43
2022/07/17 06:45:37;;;;;;;5.45;2.40;;;;;;;36.37;22.97;99964.28;5069316;28;20048;-43
2022/07/17 06:48:02;;;;;;;5.05;2.30;;;;;;;35.67;23.08;99970.22;5069781;28;20487;-44
2022/07/17 06:50:28;;;;;;;3.33;2.20;;;;;;;36.48;22.75;99966.41;5076283;28;20067;-46
2022/07/17 06:52:53;;;;;;;4.82;2.30;;;;;;;36.49;22.33;99966.03;5089469;28;20031;-45
2022/07/17 06:55:19;;;;;;;13.65;10.63;;;;;;;36.60;22.16;99969.75;5089382;28;20024;-42
2022/07/17 06:57:44;;;;;;;5.70;3.42;;;;;;;36.22;22.32;99975.53;5089397;28;20024;-44
2022/07/17 07:00:10;;;;;;;3.65;2.40;;;;;;;36.00;22.26;99962.13;5089193;28;20468;-37
2022/07/17 07:02:36;;;;;;;7.13;2.45;;;;;;;36.44;21.97;99958.03;5089995;28;20016;-35
2022/07/17 07:05:02;;;;;;;4.50;2.10;;;;;;;36.36;22.54;99954.38;5089484;28;20091;-36
2022/07/17 07:07:28;;;;;;;4.18;2.33;;;;;;;35.65;23.42;99967.81;5089992;28;20371;-37
2022/07/17 07:09:53;;;;;;;8.88;2.22;;;;;;;35.35;23.18;99962.91;5089921;28;20028;-37
2022/07/17 07:12:19;;;;;;;4.80;2.13;;;;;;;36.14;22.60;99961.53;5089777;28;20107;-38
2022/07/17 07:14:44;;;;;;;5.78;2.20;;;;;;;36.03;21.93;99960.56;5089497;28;20028;-37
2022/07/17 07:17:10;;;;;;;5.75;2.10;;;;;;;36.10;22.02;99962.63;5089619;28;20099;-36
2022/07/17 07:19:35;;;;;;;3.60;2.20;;;;;;;35.33;23.53;99969.97;5089988;28;20421;-37
2022/07/17 07:22:01;;;;;;;6.60;2.45;;;;;;;36.18;22.15;99964.41;5089505;28;20020;-37
2022/07/17 07:24:26;;;;;;;7.25;2.30;;;;;;;36.46;21.93;99957.66;5089276;28;20017;-37
2022/07/17 07:26:52;;;;;;;4.18;2.22;;;;;;;35.61;22.50;99958.63;5071996;28;20076;-38
2022/07/17 07:29:17;;;;;;;4.20;2.20;;;;;;;36.00;22.34;99972.38;5084305;28;20031;-38
2022/07/17 07:31:43;;;;;;;3.10;2.45;;;;;;;36.02;21.79;99967.25;5089770;28;20093;-35
2022/07/17 07:34:08;;;;;;;9.40;2.35;;;;;;;36.28;22.01;99963.75;5089217;28;20030;-37
2022/07/17 07:36:34;;;;;;;4.32;2.20;;;;;;;36.14;21.88;99972.63;5087991;28;20116;-37
2022/07/17 07:38:59;;;;;;;5.97;2.60;;;;;;;36.69;21.42;99977.84;5089078;28;20099;-36
2022/07/17 07:41:26;;;;;;;3.63;2.13;;;;;;;36.01;21.64;99980.31;5089432;28;20084;-36
2022/07/17 07:43:51;;;;;;;5.85;2.55;;;;;;;36.07;21.79;99977.25;5088928;28;20032;-36
2022/07/17 07:46:17;;;;;;;3.42;2.67;;;;;;;36.91;21.27;99967.81;5087964;28;20190;-37
2022/07/17 07:48:42;;;;;;;5.68;2.50;;;;;;;36.48;21.34;99970.00;5089603;28;20033;-37
2022/07/17 07:51:08;;;;;;;5.68;2.28;;;;;;;36.39;21.27;99970.25;5089150;28;20400;-37
2022/07/17 07:53:34;;;;;;;6.25;2.20;;;;;;;36.20;22.13;99973.91;5087749;28;20052;-36
2022/07/17 07:56:00;;;;;;;6.18;2.17;;;;;;;36.43;21.53;99980.59;5088038;28;20031;-37
2022/07/17 07:58:25;;;;;;;4.03;2.30;;;;;;;36.81;21.14;99984.34;5090823;28;20038;-44
2022/07/17 08:00:50;;;;;;;3.13;2.40;;;;;;;37.22;20.60;99976.94;5091797;28;20555;-44
2022/07/17 08:03:17;;;;;;;4.30;2.70;;;;;;;37.32;20.76;99983.78;5089826;28;20035;-37
2022/07/17 08:05:42;;;;;;;3.40;2.30;;;;;;;37.62;20.50;99986.50;5091533;28;20511;-45
2022/07/17 08:08:08;;;;;;;3.15;2.38;;;;;;;37.52;20.35;99995.50;5092036;28;20062;-47
2022/07/17 08:10:34;;;;;;;5.07;2.20;;;;;;;37.58;20.47;99993.19;5092759;28;20024;-44
2022/07/17 08:13:00;;;;;;;3.20;2.42;;;;;;;37.67;20.28;100002.81;5092706;28;20047;-43
2022/07/17 08:15:25;;;;;;;3.42;2.30;;;;;;;37.94;20.28;99992.34;5092938;28;20104;-42
2022/07/17 08:17:52;;;;;;;3.40;2.20;;;;;;;37.68;19.89;99985.00;5092333;28;20099;-38
2022/07/17 08:20:18;;;;;;;3.70;2.13;;;;;;;37.47;20.07;99990.28;5092640;28;20093;-44
2022/07/17 08:22:46;;;;;;;4.38;2.17;;;;;;;37.91;19.96;99976.47;5092533;28;20436;-43
2022/07/17 08:25:12;;;;;;;4.27;2.27;;;;;;;37.43;19.63;99979.13;5092874;28;20131;-42
2022/07/17 08:27:39;;;;;;;6.22;2.60;;;;;;;37.83;19.91;99985.09;5092888;28;20070;-43
2022/07/17 08:30:06;;;;;;;2.75;2.15;;;;;;;38.24;19.76;99990.63;5082200;28;20380;-45
2022/07/17 08:32:32;;;;;;;3.83;2.10;;;;;;;37.59;19.85;99989.22;5071754;28;20431;-44
2022/07/17 08:34:57;;;;;;;4.05;2.30;;;;;;;38.04;19.03;99988.09;5072315;28;20033;-43
2022/07/17 08:37:24;;;;;;;4.20;2.33;;;;;;;37.95;18.83;99995.94;5072248;28;20460;-41
2022/07/17 08:39:49;;;;;;;6.38;2.22;;;;;;;38.18;18.80;99975.53;5072181;28;20061;-42
2022/07/17 08:42:16;;;;;;;2.58;2.15;;;;;;;38.13;18.79;99982.22;5072267;28;20253;-44
2022/07/17 08:44:45;;;;;;;5.05;2.13;;;;;;;38.64;18.20;99977.81;5070263;28;20434;-46
2022/07/17 08:47:12;;;;;;;3.88;2.88;;;;;;;38.74;17.76;99973.50;5073412;28;20024;-44
2022/07/17 08:49:44;;;;;;;3.25;2.30;;;;;;;39.17;18.34;99974.50;5092019;28;20109;-42
2022/07/17 08:52:11;;;;;;;2.63;2.20;;;;;;;38.44;18.75;99975.31;5091716;28;20028;-43
2022/07/17 08:54:37;;;;;;;3.58;2.17;;;;;;;38.60;18.48;99980.59;5091796;28;20058;-43
2022/07/17 08:57:03;;;;;;;2.33;2.00;;;;;;;38.94;17.75;99973.97;5080074;28;20024;-42
2022/07/17 08:59:29;;;;;;;4.90;2.53;;;;;;;38.88;18.09;99971.59;5071406;28;20024;-43
2022/07/17 09:01:55;;;;;;;4.40;2.20;;;;;;;38.56;17.98;99970.63;5088947;28;20132;-37
2022/07/17 09:04:20;;;;;;;8.57;2.30;;;;;;;38.17;18.38;99963.59;5092076;28;20495;-43
2022/07/17 09:06:46;;;;;;;2.88;2.05;;;;;;;38.09;18.69;99954.41;5092311;28;20153;-42
2022/07/17 09:09:14;;;;;;;3.97;2.22;;;;;;;38.38;18.39;99971.28;5091712;28;20024;-37
2022/07/17 09:11:52;;;;;;;3.70;2.20;;;;;;;39.01;17.92;99974.03;5091785;28;20031;-43
2022/07/17 09:14:20;;;;;;;4.82;2.25;;;;;;;38.62;17.83;99981.00;5091616;28;20028;-44
2022/07/17 09:16:55;;;;;;;4.43;2.25;;;;;;;38.53;17.95;99972.16;5091887;28;20024;-43
2022/07/17 09:19:32;;;;;;;2.53;2.17;;;;;;;38.30;18.32;99980.75;5091832;28;20044;-43
2022/07/17 09:22:12;;;;;;;4.47;2.67;;;;;;;38.34;17.98;99973.25;5091651;28;20080;-43
2022/07/17 09:24:49;;;;;;;3.25;2.20;;;;;;;38.31;18.18;99969.25;5091576;28;20028;-43
2022/07/17 09:27:31;;;;;;;6.30;2.03;;;;;;;38.52;17.93;99967.81;5091871;28;20046;-43
2022/07/17 09:29:59;;;;;;;4.53;2.40;;;;;;;38.73;17.83;99956.03;5091746;28;20024;-43
2022/07/17 09:32:28;;;;;;;5.97;2.20;;;;;;;37.68;18.32;99971.13;5091387;28;20532;-42
2022/07/17 09:34:57;;;;;;;5.15;2.10;;;;;;;37.28;18.69;99969.06;5091365;28;20028;-44
2022/07/17 09:37:24;;;;;;;4.70;2.40;;;;;;;37.01;17.92;99965.56;5092042;28;20020;-43
2022/07/17 09:39:51;;;;;;;4.35;2.00;;;;;;;36.99;17.65;99968.69;5092023;28;20050;-43
2022/07/17 09:42:31;;;;;;;4.35;2.00;;;;;;;37.21;18.15;99961.47;5091830;28;20028;-43
2022/07/17 09:45:06;;;;;;;3.63;2.17;;;;;;;37.34;18.16;99971.13;5078182;28;20043;-43
2022/07/17 09:47:34;;;;;;;6.18;2.28;;;;;;;37.52;17.97;99964.97;5071671;28;20042;-43
2022/07/17 09:50:01;;;;;;;6.88;2.50;;;;;;;37.50;18.47;99967.31;5071259;28;20045;-44
2022/07/17 09:52:31;;;;;;;2.30;2.00;;;;;;;37.22;18.70;99951.97;5071488;28;20032;-43
2022/07/17 09:54:58;;;;;;;2.45;2.22;;;;;;;37.58;18.07;99968.97;5069309;28;20471;-43
2022/07/17 09:57:31;;;;;;;5.65;2.22;;;;;;;37.25;18.82;99965.09;5070856;28;20126;-42
2022/07/17 10:00:16;;;;;;;6.10;2.05;;;;;;;37.14;18.43;99966.94;5087416;28;20076;-45
2022/07/17 10:02:45;;;;;;;5.82;2.42;;;;;;;37.12;18.17;99969.25;5091209;28;20027;-42
2022/07/17 10:05:15;;;;;;;4.00;2.00;;;;;;;38.03;17.82;99972.59;5089577;28;20028;-43
2022/07/17 10:07:41;;;;;;;3.40;1.90;;;;;;;38.24;17.72;99966.44;5091570;28;20024;-43
2022/07/17 10:10:10;;;;;;;5.68;2.40;;;;;;;38.04;17.99;99959.50;5091666;28;20106;-43
2022/07/17 10:12:41;;;;;;;7.05;2.10;;;;;;;37.77;17.75;99961.66;5090392;28;20024;-44
2022/07/17 10:15:08;;;;;;;6.93;2.33;;;;;;;37.74;17.93;99963.22;5089715;28;20035;-44
2022/07/17 10:17:33;;;;;;;4.93;2.17;;;;;;;37.11;17.83;99954.59;5089681;28;20335;-42
2022/07/17 10:19:59;;;;;;;4.28;2.20;;;;;;;37.35;18.17;99955.28;5089720;28;20024;-43
2022/07/17 10:22:25;;;;;;;6.03;2.25;;;;;;;37.35;18.31;99960.81;5089635;28;20021;-42
2022/07/17 10:24:52;;;;;;;6.18;2.30;;;;;;;37.94;17.33;99947.91;5090016;28;20093;-43
2022/07/17 10:27:24;;;;;;;3.10;1.85;;;;;;;37.63;17.29;99949.25;5090063;28;20024;-44
2022/07/17 10:30:03;;;;;;;6.85;3.45;;;;;;;37.78;17.45;99938.28;5090189;28;20103;-42
2022/07/17 10:32:28;;;;;;;3.58;2.00;;;;;;;37.60;16.75;99936.09;5089865;28;20062;-42
2022/07/17 10:34:59;;;;;;;3.80;2.10;;;;;;;37.81;17.99;99934.72;5089869;28;20051;-43
2022/07/17 10:37:30;;;;;;;6.75;6.05;;;;;;;38.14;17.45;99934.63;5089828;28;20048;-37
2022/07/17 10:40:00;;;;;;;6.15;3.75;;;;;;;38.55;17.56;99930.91;5089860;28;20028;-36
2022/07/17 10:42:44;;;;;;;4.47;2.80;;;;;;;39.17;16.35;99929.22;5089818;28;20016;-37
2022/07/17 10:45:12;;;;;;;4.60;2.35;;;;;;;38.34;16.72;99920.44;5089866;28;20078;-37
2022/07/17 10:47:48;;;;;;;2.40;1.92;;;;;;;37.24;18.17;99932.97;5089362;28;20028;-37
2022/07/17 10:50:14;;;;;;;2.83;2.10;;;;;;;37.62;18.33;99922.66;5089398;28;20438;-37
2022/07/17 10:52:39;;;;;;;2.80;1.92;;;;;;;38.14;18.29;99917.16;5089435;28;20043;-37
2022/07/17 10:55:16;;;;;;;3.97;2.10;;;;;;;38.17;17.62;99916.38;5089535;28;20607;-37
2022/07/17 10:57:42;;;;;;;6.45;2.55;;;;;;;38.16;17.73;99906.47;5089788;28;20392;-37
2022/07/17 11:00:08;;;;;;;4.43;2.30;;;;;;;37.91;17.97;99915.38;5071470;28;20112;-37
2022/07/17 11:02:33;;;;;;;3.80;2.10;;;;;;;37.89;17.87;99911.38;5069189;28;20032;-37
2022/07/17 11:05:06;;;;;;;3.75;2.10;;;;;;;38.01;17.89;99911.09;5068932;28;20147;-37
2022/07/17 11:07:32;;;;;;;2.30;2.10;;;;;;;38.39;17.22;99900.63;5069716;28;20029;-37
2022/07/17 11:09:57;;;;;;;2.95;1.98;;;;;;;38.69;16.67;99905.97;5069294;28;20025;-37
2022/07/17 11:12:35;;;;;;;2.65;2.15;;;;;;;38.82;17.26;99898.09;5069180;28;20078;-37
2022/07/17 11:15:04;;;;;;;3.25;2.03;;;;;;;39.05;17.09;99903.34;5068810;28;20021;-37
2022/07/17 11:17:30;;;;;;;7.82;2.00;;;;;;;39.03;17.14;99907.69;5069158;28;20563;-37
2022/07/17 11:19:59;;;;;;;5.25;2.70;;;;;;;38.32;17.09;99895.81;5068970;28;20025;-37
2022/07/17 11:22:25;;;;;;;4.68;2.35;;;;;;;38.43;16.90;99895.09;5069293;28;20380;-38
2022/07/17 11:24:51;;;;;;;3.08;2.40;;;;;;;38.19;16.52;99890.97;5069187;28;20031;-37
2022/07/17 11:27:26;;;;;;;3.50;2.25;;;;;;;37.51;17.05;99880.91;5069210;28;20055;-37
2022/07/17 11:29:55;;;;;;;3.53;2.30;;;;;;;37.49;16.76;99893.56;5068926;28;20376;-37
2022/07/17 11:32:21;;;;;;;3.72;2.05;;;;;;;37.19;17.50;99896.47;5071089;28;20062;-37
2022/07/17 11:34:47;;;;;;;3.47;2.00;;;;;;;37.30;16.88;99891.81;5073348;28;20453;-37